createdAt,value
2017-05-09T00:00:13.155Z,4
2017-05-09T00:01:25.959Z,12
2017-05-09T00:02:38.750Z,12
2017-05-09T00:03:51.547Z,12
2017-05-09T00:05:04.533Z,12
2017-05-09T00:06:16.835Z,12
2017-05-09T00:07:29.656Z,4
2017-05-09T00:08:42.448Z,4
2017-05-09T00:09:55.235Z,12
2017-05-09T00:11:08.027Z,12
2017-05-09T00:12:20.853Z,4
2017-05-09T00:13:33.638Z,12
2017-05-09T00:14:45.945Z,16
2017-05-09T00:15:58.730Z,12
2017-05-09T00:17:11.516Z,12
2017-05-09T00:18:23.817Z,12
2017-05-09T00:19:36.607Z,12
2017-05-09T00:20:49.588Z,4
2017-05-09T00:22:01.891Z,4
2017-05-09T00:23:14.196Z,4
2017-05-09T00:24:26.991Z,4
2017-05-09T00:25:39.773Z,12
2017-05-09T00:26:52.279Z,16
2017-05-09T00:28:05.067Z,12
2017-05-09T00:29:17.372Z,12
2017-05-09T00:30:30.159Z,12
2017-05-09T00:31:43.143Z,12
2017-05-09T00:32:55.934Z,12
2017-05-09T00:34:08.729Z,12
2017-05-09T00:35:21.033Z,12
2017-05-09T00:36:33.818Z,12
2017-05-09T00:37:46.604Z,12
2017-05-09T00:38:59.390Z,4
2017-05-09T00:40:12.181Z,4
2017-05-09T00:41:24.980Z,4
2017-05-09T00:42:36.999Z,4
2017-05-09T00:43:49.792Z,16
2017-05-09T00:45:02.577Z,16
2017-05-09T00:46:14.877Z,12
2017-05-09T00:47:27.179Z,12
2017-05-09T00:48:39.962Z,12
2017-05-09T00:49:52.801Z,12
2017-05-09T00:51:05.121Z,12
2017-05-09T00:52:17.432Z,4
2017-05-09T00:53:30.435Z,4
2017-05-09T00:54:43.230Z,12
2017-05-09T00:55:55.546Z,16
2017-05-09T00:57:08.342Z,12
2017-05-09T00:58:20.649Z,12
2017-05-09T00:59:33.157Z,12
2017-05-09T01:00:45.468Z,12
2017-05-09T01:01:58.266Z,12
2017-05-09T01:03:10.580Z,12
2017-05-09T01:04:23.578Z,12
2017-05-09T01:05:35.880Z,4
2017-05-09T01:06:48.675Z,4
2017-05-09T01:08:01.465Z,4
2017-05-09T01:09:14.249Z,4
2017-05-09T01:10:27.233Z,16
2017-05-09T01:11:40.021Z,16
2017-05-09T01:12:52.816Z,12
2017-05-09T01:14:05.125Z,4
2017-05-09T01:15:17.735Z,12
2017-05-09T01:16:30.526Z,12
2017-05-09T01:17:43.328Z,12
2017-05-09T01:18:56.131Z,12
2017-05-09T01:20:08.476Z,12
2017-05-09T01:21:21.466Z,12
2017-05-09T01:22:34.258Z,4
2017-05-09T01:23:46.085Z,4
2017-05-09T01:24:58.392Z,12
2017-05-09T01:26:11.375Z,16
2017-05-09T01:27:24.168Z,12
2017-05-09T01:28:36.968Z,4
2017-05-09T01:29:49.751Z,12
2017-05-09T01:31:02.564Z,16
2017-05-09T01:32:15.581Z,12
2017-05-09T01:33:27.907Z,12
2017-05-09T01:34:40.732Z,12
2017-05-09T01:35:53.527Z,12
2017-05-09T01:37:05.856Z,12
2017-05-09T01:38:18.659Z,12
2017-05-09T01:39:31.478Z,12
2017-05-09T01:40:43.789Z,12
2017-05-09T01:41:56.580Z,12
2017-05-09T01:43:09.572Z,12
2017-05-09T01:44:22.566Z,12
2017-05-09T01:45:35.361Z,12
2017-05-09T01:46:47.670Z,12
2017-05-09T01:48:00.656Z,12
2017-05-09T01:49:13.450Z,12
2017-05-09T01:50:26.243Z,12
2017-05-09T01:51:39.038Z,12
2017-05-09T01:52:51.831Z,12
2017-05-09T01:54:04.821Z,12
2017-05-09T01:55:17.617Z,12
2017-05-09T01:56:30.413Z,12
2017-05-09T01:57:43.209Z,12
2017-05-09T01:58:55.728Z,12
2017-05-09T02:00:08.519Z,12
2017-05-09T02:01:20.829Z,12
2017-05-09T02:02:33.626Z,12
2017-05-09T02:03:46.414Z,12
2017-05-09T02:05:12.806Z,12
2017-05-09T02:06:39.680Z,12
2017-05-09T02:07:52.483Z,12
2017-05-09T02:09:05.475Z,12
2017-05-09T02:10:18.273Z,12
2017-05-09T02:11:31.351Z,12
2017-05-09T02:12:44.361Z,12
2017-05-09T02:13:57.191Z,12
2017-05-09T02:15:09.999Z,12
2017-05-09T02:16:22.525Z,12
2017-05-09T02:17:35.441Z,12
2017-05-09T02:18:47.859Z,4
2017-05-09T02:20:00.430Z,16
2017-05-09T02:21:12.744Z,12
2017-05-09T02:22:25.072Z,12
2017-05-09T02:23:37.885Z,12
2017-05-09T02:24:50.693Z,12
2017-05-09T02:26:03.494Z,12
2017-05-09T02:27:16.301Z,12
2017-05-09T02:28:29.100Z,12
2017-05-09T02:29:41.888Z,12
2017-05-09T02:30:54.884Z,12
2017-05-09T02:32:07.682Z,12
2017-05-09T02:33:19.993Z,12
2017-05-09T02:34:32.786Z,12
2017-05-09T02:35:45.586Z,12
2017-05-09T02:36:58.380Z,12
2017-05-09T02:38:11.176Z,12
2017-05-09T02:39:23.970Z,12
2017-05-09T02:40:36.768Z,12
2017-05-09T02:41:49.767Z,12
2017-05-09T02:43:02.562Z,12
2017-05-09T02:44:15.357Z,12
2017-05-09T02:45:28.146Z,12
2017-05-09T02:46:40.941Z,12
2017-05-09T02:47:53.946Z,12
2017-05-09T02:49:06.743Z,12
2017-05-09T02:50:19.549Z,12
2017-05-09T02:51:32.357Z,12
2017-05-09T02:52:45.154Z,12
2017-05-09T02:53:57.960Z,12
2017-05-09T02:55:10.760Z,12
2017-05-09T02:56:23.562Z,12
2017-05-09T02:57:36.350Z,12
2017-05-09T02:58:49.336Z,12
2017-05-09T03:00:02.132Z,12
2017-05-09T03:01:14.920Z,12
2017-05-09T03:02:26.742Z,12
2017-05-09T03:03:39.741Z,12
2017-05-09T03:04:52.537Z,12
2017-05-09T03:06:05.338Z,12
2017-05-09T03:07:18.138Z,12
2017-05-09T03:09:57.812Z,12
2017-05-09T03:11:10.607Z,12
2017-05-09T03:12:23.404Z,12
2017-05-09T03:13:36.210Z,12
2017-05-09T03:14:48.999Z,12
2017-05-09T03:16:01.785Z,12
2017-05-09T03:17:14.581Z,12
2017-05-09T03:18:27.375Z,12
2017-05-09T03:19:40.170Z,12
2017-05-09T03:20:52.956Z,12
2017-05-09T03:22:05.750Z,12
2017-05-09T03:23:18.544Z,12
2017-05-09T03:24:30.863Z,12
2017-05-09T03:25:43.366Z,12
2017-05-09T03:26:56.149Z,12
2017-05-09T03:28:08.954Z,12
2017-05-09T03:29:21.741Z,12
2017-05-09T03:30:34.043Z,12
2017-05-09T03:31:46.827Z,12
2017-05-09T03:32:59.619Z,12
2017-05-09T03:34:12.414Z,12
2017-05-09T03:35:25.203Z,12
2017-05-09T03:36:38.188Z,12
2017-05-09T03:37:50.499Z,12
2017-05-09T03:39:03.298Z,12
2017-05-09T03:40:15.608Z,12
2017-05-09T03:41:27.918Z,12
2017-05-09T03:42:40.526Z,12
2017-05-09T03:43:53.322Z,12
2017-05-09T03:45:06.140Z,12
2017-05-09T03:46:18.923Z,12
2017-05-09T03:47:31.703Z,12
2017-05-09T03:48:44.497Z,12
2017-05-09T03:49:57.287Z,12
2017-05-09T03:51:09.588Z,12
2017-05-09T03:52:22.371Z,12
2017-05-09T03:53:35.152Z,12
2017-05-09T03:54:47.945Z,12
2017-05-09T03:56:00.726Z,12
2017-05-09T03:57:13.519Z,12
2017-05-09T03:58:26.298Z,12
2017-05-09T03:59:38.599Z,12
2017-05-09T04:00:51.390Z,12
2017-05-09T04:02:04.176Z,12
2017-05-09T04:03:15.993Z,12
2017-05-09T04:04:28.308Z,12
2017-05-09T04:05:41.095Z,12
2017-05-09T04:06:53.876Z,12
2017-05-09T04:08:06.662Z,4
2017-05-09T04:09:19.444Z,12
2017-05-09T04:10:32.245Z,12
2017-05-09T04:11:44.560Z,12
2017-05-09T04:12:57.343Z,12
2017-05-09T04:14:09.649Z,12
2017-05-09T04:15:21.951Z,12
2017-05-09T04:16:34.732Z,12
2017-05-09T04:17:47.511Z,12
2017-05-09T04:19:00.325Z,12
2017-05-09T04:20:13.308Z,12
2017-05-09T04:21:25.620Z,12
2017-05-09T04:22:38.430Z,12
2017-05-09T04:23:51.221Z,12
2017-05-09T04:25:04.009Z,12
2017-05-09T04:26:16.792Z,12
2017-05-09T04:27:29.574Z,12
2017-05-09T04:28:42.359Z,12
2017-05-09T04:29:55.143Z,12
2017-05-09T04:31:08.225Z,12
2017-05-09T04:32:20.046Z,12
2017-05-09T04:33:32.840Z,12
2017-05-09T04:34:45.626Z,12
2017-05-09T04:35:58.405Z,12
2017-05-09T04:37:11.385Z,12
2017-05-09T04:38:24.166Z,12
2017-05-09T04:39:36.949Z,12
2017-05-09T04:40:49.769Z,12
2017-05-09T04:42:02.556Z,12
2017-05-09T04:43:14.856Z,12
2017-05-09T04:44:27.639Z,12
2017-05-09T04:45:39.943Z,12
2017-05-09T04:46:52.286Z,12
2017-05-09T04:48:05.365Z,12
2017-05-09T04:49:17.178Z,12
2017-05-09T04:50:29.962Z,12
2017-05-09T04:51:42.745Z,12
2017-05-09T04:52:55.830Z,12
2017-05-09T04:54:08.620Z,12
2017-05-09T04:55:21.413Z,12
2017-05-09T04:56:34.194Z,8
2017-05-09T04:57:46.984Z,8
2017-05-09T04:58:59.770Z,12
2017-05-09T05:00:12.554Z,12
2017-05-09T05:01:24.860Z,8
2017-05-09T05:02:37.641Z,12
2017-05-09T05:03:49.942Z,12
2017-05-09T05:05:02.733Z,8
2017-05-09T05:06:15.050Z,12
2017-05-09T05:07:27.836Z,12
2017-05-09T05:08:40.624Z,4
2017-05-09T05:09:53.223Z,16
2017-05-09T05:11:06.004Z,12
2017-05-09T05:12:18.306Z,12
2017-05-09T05:13:31.083Z,12
2017-05-09T05:14:44.064Z,12
2017-05-09T05:15:56.855Z,12
2017-05-09T05:17:09.637Z,12
2017-05-09T05:18:22.430Z,12
2017-05-09T05:19:35.247Z,12
2017-05-09T05:20:48.334Z,12
2017-05-09T05:22:01.114Z,8
2017-05-09T05:23:13.414Z,12
2017-05-09T05:24:25.234Z,8
2017-05-09T05:25:38.018Z,12
2017-05-09T05:26:50.320Z,12
2017-05-09T05:28:02.627Z,12
2017-05-09T05:29:15.410Z,12
2017-05-09T05:30:28.194Z,12
2017-05-09T05:31:41.192Z,12
2017-05-09T05:32:53.977Z,12
2017-05-09T05:34:06.756Z,12
2017-05-09T05:35:19.054Z,12
2017-05-09T05:36:31.837Z,12
2017-05-09T05:37:44.633Z,12
2017-05-09T05:38:57.417Z,12
2017-05-09T05:40:09.712Z,12
2017-05-09T05:41:22.492Z,12
2017-05-09T05:42:34.789Z,4
2017-05-09T05:43:47.575Z,12
2017-05-09T05:45:00.358Z,12
2017-05-09T05:46:13.140Z,12
2017-05-09T05:47:25.439Z,12
2017-05-09T05:48:38.245Z,12
2017-05-09T05:49:51.025Z,12
2017-05-09T05:51:03.801Z,12
2017-05-09T05:52:16.113Z,12
2017-05-09T05:53:29.194Z,12
2017-05-09T05:54:41.989Z,12
2017-05-09T05:55:54.770Z,8
2017-05-09T05:57:07.554Z,8
2017-05-09T05:58:19.372Z,12
2017-05-09T05:59:32.151Z,12
2017-05-09T06:00:44.448Z,12
2017-05-09T06:01:57.237Z,12
2017-05-09T06:03:10.016Z,12
2017-05-09T06:04:23.005Z,12
2017-05-09T06:05:35.789Z,8
2017-05-09T06:06:48.572Z,12
2017-05-09T06:08:01.356Z,12
2017-05-09T06:09:14.152Z,8
2017-05-09T06:10:26.933Z,8
2017-05-09T06:11:39.719Z,12
2017-05-09T06:12:52.509Z,12
2017-05-09T06:14:05.304Z,12
2017-05-09T06:15:17.916Z,12
2017-05-09T06:16:30.700Z,12
2017-05-09T06:17:43.001Z,12
2017-05-09T06:18:54.829Z,12
2017-05-09T06:20:07.132Z,12
2017-05-09T06:21:19.908Z,12
2017-05-09T06:22:32.210Z,8
2017-05-09T06:23:44.995Z,12
2017-05-09T06:24:57.781Z,8
2017-05-09T06:26:10.859Z,12
2017-05-09T06:27:23.643Z,12
2017-05-09T06:28:36.436Z,12
2017-05-09T06:29:48.744Z,12
2017-05-09T06:31:01.529Z,4
2017-05-09T06:32:14.309Z,12
2017-05-09T06:33:27.112Z,12
2017-05-09T06:34:39.411Z,12
2017-05-09T06:35:51.711Z,12
2017-05-09T06:37:04.492Z,12
2017-05-09T06:38:16.794Z,12
2017-05-09T06:39:29.579Z,12
2017-05-09T06:40:42.364Z,12
2017-05-09T06:41:55.358Z,12
2017-05-09T06:43:08.151Z,12
2017-05-09T06:44:20.458Z,12
2017-05-09T06:45:33.253Z,12
2017-05-09T06:46:46.037Z,12
2017-05-09T06:48:12.896Z,12
2017-05-09T06:49:25.197Z,16
2017-05-09T06:50:37.980Z,12
2017-05-09T06:51:51.066Z,12
2017-05-09T06:53:02.887Z,12
2017-05-09T06:54:14.710Z,12
2017-05-09T06:55:27.487Z,12
2017-05-09T06:56:40.266Z,12
2017-05-09T06:57:52.764Z,8
2017-05-09T06:59:05.541Z,12
2017-05-09T07:00:18.325Z,12
2017-05-09T07:01:30.623Z,12
2017-05-09T07:02:43.401Z,12
2017-05-09T07:03:55.219Z,12
2017-05-09T07:05:08.003Z,12
2017-05-09T07:06:20.781Z,12
2017-05-09T07:07:33.087Z,4
2017-05-09T07:08:45.868Z,12
2017-05-09T07:09:58.172Z,12
2017-05-09T07:11:10.955Z,12
2017-05-09T07:12:23.735Z,12
2017-05-09T07:13:36.041Z,12
2017-05-09T07:14:48.642Z,12
2017-05-09T07:16:01.429Z,12
2017-05-09T07:17:13.727Z,12
2017-05-09T07:18:26.509Z,12
2017-05-09T07:19:39.297Z,12
2017-05-09T07:20:51.598Z,12
2017-05-09T07:22:04.380Z,12
2017-05-09T07:23:16.682Z,12
2017-05-09T07:24:29.458Z,12
2017-05-09T07:25:42.237Z,12
2017-05-09T07:26:55.030Z,12
2017-05-09T07:28:07.812Z,12
2017-05-09T07:29:20.115Z,12
2017-05-09T07:30:33.097Z,12
2017-05-09T07:31:45.880Z,12
2017-05-09T07:32:58.661Z,12
2017-05-09T07:34:10.478Z,12
2017-05-09T07:35:23.263Z,12
2017-05-09T07:36:35.862Z,12
2017-05-09T07:37:48.162Z,12
2017-05-09T07:39:00.938Z,12
2017-05-09T07:40:13.721Z,12
2017-05-09T07:41:26.326Z,12
2017-05-09T07:42:39.112Z,12
2017-05-09T07:43:50.931Z,8
2017-05-09T07:45:03.751Z,12
2017-05-09T07:46:16.052Z,12
2017-05-09T07:47:28.842Z,12
2017-05-09T07:48:41.624Z,12
2017-05-09T07:49:54.402Z,12
2017-05-09T07:51:07.185Z,4
2017-05-09T07:52:19.692Z,16
2017-05-09T07:53:32.483Z,12
2017-05-09T07:54:45.264Z,12
2017-05-09T07:55:58.042Z,12
2017-05-09T07:57:10.337Z,12
2017-05-09T07:58:23.418Z,8
2017-05-09T07:59:35.722Z,12
2017-05-09T08:00:48.020Z,12
2017-05-09T08:02:00.805Z,8
2017-05-09T08:03:13.793Z,12
2017-05-09T08:04:26.574Z,12
2017-05-09T08:05:38.882Z,4
2017-05-09T08:06:51.662Z,16
2017-05-09T08:08:03.959Z,12
2017-05-09T08:09:16.464Z,12
2017-05-09T08:10:29.248Z,12
2017-05-09T08:11:41.550Z,12
2017-05-09T08:12:54.330Z,12
2017-05-09T08:14:07.310Z,12
2017-05-09T08:15:19.613Z,12
2017-05-09T08:16:31.928Z,12
2017-05-09T08:17:44.707Z,12
2017-05-09T08:18:57.496Z,12
2017-05-09T08:20:09.803Z,12
2017-05-09T08:21:21.617Z,12
2017-05-09T08:22:33.918Z,12
2017-05-09T08:23:46.700Z,8
2017-05-09T08:24:59.780Z,12
2017-05-09T08:26:12.558Z,12
2017-05-09T08:27:25.338Z,12
2017-05-09T08:28:37.638Z,8
2017-05-09T08:29:50.424Z,12
2017-05-09T08:31:03.023Z,12
2017-05-09T08:32:14.837Z,4
2017-05-09T08:33:27.144Z,12
2017-05-09T08:34:39.444Z,12
2017-05-09T08:35:52.224Z,12
2017-05-09T08:37:05.005Z,12
2017-05-09T08:38:17.800Z,8
2017-05-09T08:39:30.107Z,12
2017-05-09T08:40:42.944Z,12
2017-05-09T08:41:55.929Z,4
2017-05-09T08:43:08.709Z,12
2017-05-09T08:44:20.526Z,12
2017-05-09T08:45:33.306Z,12
2017-05-09T08:46:46.288Z,12
2017-05-09T08:47:58.590Z,12
2017-05-09T08:49:11.385Z,12
2017-05-09T08:50:24.204Z,12
2017-05-09T08:51:36.502Z,16
2017-05-09T08:52:49.101Z,12
2017-05-09T08:54:01.402Z,12
2017-05-09T08:55:14.185Z,12
2017-05-09T08:56:26.970Z,12
2017-05-09T08:57:39.574Z,12
2017-05-09T08:58:52.360Z,12
2017-05-09T09:00:05.139Z,12
2017-05-09T09:01:17.435Z,12
2017-05-09T09:02:30.214Z,12
2017-05-09T09:03:43.193Z,4
2017-05-09T09:04:55.491Z,12
2017-05-09T09:06:08.272Z,12
2017-05-09T09:07:20.090Z,12
2017-05-09T09:08:32.590Z,12
2017-05-09T09:09:45.371Z,12
2017-05-09T09:10:58.151Z,12
2017-05-09T09:12:10.450Z,12
2017-05-09T09:13:22.749Z,4
2017-05-09T09:14:35.532Z,4
2017-05-09T09:15:48.309Z,8
2017-05-09T09:17:01.090Z,16
2017-05-09T09:18:13.385Z,16
2017-05-09T09:19:25.718Z,12
2017-05-09T09:20:38.500Z,16
2017-05-09T09:21:50.804Z,4
2017-05-09T09:23:03.582Z,12
2017-05-09T09:24:16.363Z,8
2017-05-09T09:25:29.448Z,16
2017-05-09T09:26:42.233Z,16
2017-05-09T09:27:54.531Z,12
2017-05-09T09:29:07.315Z,20
2017-05-09T09:30:20.096Z,20
2017-05-09T09:31:32.875Z,20
2017-05-09T09:32:45.658Z,20
2017-05-09T09:33:58.438Z,24
2017-05-09T09:35:10.733Z,12
2017-05-09T09:36:23.228Z,12
2017-05-09T09:37:36.007Z,16
2017-05-09T09:38:48.787Z,16
2017-05-09T09:40:01.567Z,16
2017-05-09T09:41:27.949Z,24
2017-05-09T09:42:40.248Z,28
2017-05-09T09:43:53.028Z,28
2017-05-09T09:45:05.330Z,28
2017-05-09T09:46:17.865Z,32
2017-05-09T09:47:30.168Z,32
2017-05-09T09:48:42.464Z,36
2017-05-09T09:49:55.264Z,40
2017-05-09T09:51:08.042Z,40
2017-05-09T09:52:18.897Z,44
2017-05-09T09:53:31.235Z,44
2017-05-09T09:54:43.544Z,48
2017-05-09T09:55:56.321Z,56
2017-05-09T09:57:08.816Z,60
2017-05-09T09:58:21.122Z,60
2017-05-09T09:59:33.901Z,56
2017-05-09T10:00:46.689Z,56
2017-05-09T10:01:59.471Z,64
2017-05-09T10:03:12.447Z,68
2017-05-09T10:04:24.751Z,72
2017-05-09T10:05:37.049Z,68
2017-05-09T10:06:49.830Z,68
2017-05-09T10:08:02.330Z,64
2017-05-09T10:09:14.625Z,60
2017-05-09T10:10:26.923Z,56
2017-05-09T10:11:39.221Z,60
2017-05-09T10:12:52.016Z,72
2017-05-09T10:14:04.800Z,72
2017-05-09T10:15:17.581Z,68
2017-05-09T10:16:30.368Z,64
2017-05-09T10:17:42.667Z,72
2017-05-09T10:18:55.454Z,84
2017-05-09T10:20:08.239Z,88
2017-05-09T10:21:20.538Z,100
2017-05-09T10:22:32.886Z,96
2017-05-09T10:23:45.668Z,88
2017-05-09T10:24:58.450Z,92
2017-05-09T10:26:11.232Z,92
2017-05-09T10:27:24.013Z,108
2017-05-09T10:28:36.795Z,108
2017-05-09T10:29:49.578Z,104
2017-05-09T10:31:02.360Z,120
2017-05-09T10:32:15.143Z,128
2017-05-09T10:33:27.449Z,128
2017-05-09T10:34:40.236Z,128
2017-05-09T10:35:52.067Z,128
2017-05-09T10:37:03.883Z,128
2017-05-09T10:38:16.664Z,132
2017-05-09T10:39:29.450Z,132
2017-05-09T10:40:42.237Z,140
2017-05-09T10:41:55.040Z,156
2017-05-09T10:43:07.824Z,160
2017-05-09T10:44:20.129Z,172
2017-05-09T10:45:32.917Z,204
2017-05-09T10:46:45.696Z,228
2017-05-09T10:47:58.481Z,240
2017-05-09T10:49:10.785Z,232
2017-05-09T10:50:23.115Z,236
2017-05-09T10:51:35.901Z,240
2017-05-09T10:52:48.695Z,248
2017-05-09T10:54:00.999Z,272
2017-05-09T10:55:12.820Z,280
2017-05-09T10:56:24.644Z,256
2017-05-09T10:57:37.437Z,248
2017-05-09T10:58:49.741Z,248
2017-05-09T11:00:02.521Z,284
2017-05-09T11:01:14.820Z,296
2017-05-09T11:02:27.114Z,280
2017-05-09T11:03:39.891Z,284
2017-05-09T11:04:52.202Z,308
2017-05-09T11:06:04.982Z,312
2017-05-09T11:07:16.796Z,300
2017-05-09T11:08:29.925Z,304
2017-05-09T11:09:42.710Z,300
2017-05-09T11:10:55.488Z,276
2017-05-09T11:12:08.273Z,300
2017-05-09T11:13:20.094Z,356
2017-05-09T11:14:32.894Z,324
2017-05-09T11:15:45.193Z,336
2017-05-09T11:16:57.983Z,336
2017-05-09T11:18:10.761Z,356
2017-05-09T11:19:23.552Z,364
2017-05-09T11:20:36.330Z,352
2017-05-09T11:21:49.107Z,344
2017-05-09T11:23:01.899Z,384
2017-05-09T11:24:15.029Z,444
2017-05-09T11:25:27.803Z,464
2017-05-09T11:26:40.582Z,612
2017-05-09T11:27:53.363Z,640
2017-05-09T11:29:05.182Z,516
2017-05-09T11:30:31.554Z,632
2017-05-09T11:31:44.337Z,680
2017-05-09T11:32:57.119Z,568
2017-05-09T11:34:09.905Z,580
2017-05-09T11:35:22.687Z,560
2017-05-09T11:36:35.510Z,568
2017-05-09T11:37:47.812Z,612
2017-05-09T11:39:00.592Z,732
2017-05-09T11:40:27.447Z,896
2017-05-09T11:41:40.235Z,724
2017-05-09T11:42:52.529Z,568
2017-05-09T11:44:05.307Z,544
2017-05-09T11:45:17.608Z,512
2017-05-09T11:46:29.425Z,588
2017-05-09T11:47:41.723Z,1396
2017-05-09T11:48:54.506Z,1268
2017-05-09T11:50:07.288Z,1164
2017-05-09T11:51:20.074Z,1228
2017-05-09T11:52:31.917Z,1336
2017-05-09T11:53:44.217Z,1460
2017-05-09T11:54:57.008Z,1380
2017-05-09T11:56:09.615Z,1004
2017-05-09T11:57:22.409Z,792
2017-05-09T11:58:35.193Z,996
2017-05-09T11:59:47.499Z,1024
2017-05-09T12:01:00.283Z,1320
2017-05-09T12:02:12.784Z,1260
2017-05-09T12:03:24.605Z,1416
2017-05-09T12:04:37.399Z,1512
2017-05-09T12:05:50.195Z,1740
2017-05-09T12:07:02.506Z,1704
2017-05-09T12:08:15.297Z,1628
2017-05-09T12:09:28.093Z,1600
2017-05-09T12:10:40.891Z,1672
2017-05-09T12:11:53.686Z,1664
2017-05-09T12:13:06.780Z,1812
2017-05-09T12:14:19.098Z,1828
2017-05-09T12:15:31.889Z,1648
2017-05-09T12:16:44.689Z,664
2017-05-09T12:17:57.611Z,992
2017-05-09T12:19:10.398Z,1040
2017-05-09T12:20:22.224Z,1244
2017-05-09T12:21:35.018Z,1504
2017-05-09T12:22:47.816Z,1920
2017-05-09T12:24:00.138Z,1956
2017-05-09T12:25:13.236Z,1892
2017-05-09T12:26:25.071Z,1980
2017-05-09T12:27:37.381Z,1980
2017-05-09T12:28:49.685Z,1964
2017-05-09T12:30:02.773Z,2020
2017-05-09T12:31:15.090Z,1960
2017-05-09T12:32:27.877Z,1296
2017-05-09T12:33:40.667Z,1852
2017-05-09T12:34:53.454Z,1896
2017-05-09T12:36:06.241Z,1936
2017-05-09T12:37:19.038Z,1932
2017-05-09T12:38:31.347Z,1908
2017-05-09T12:39:44.130Z,1892
2017-05-09T12:40:57.221Z,1868
2017-05-09T12:42:10.018Z,1868
2017-05-09T12:43:21.844Z,1836
2017-05-09T12:44:34.164Z,1820
2017-05-09T12:45:46.472Z,1820
2017-05-09T12:46:59.262Z,1820
2017-05-09T12:48:12.063Z,1796
2017-05-09T12:49:25.053Z,1788
2017-05-09T12:50:37.838Z,1776
2017-05-09T12:51:49.663Z,1780
2017-05-09T12:53:02.470Z,1796
2017-05-09T12:54:15.267Z,1828
2017-05-09T12:55:27.572Z,1816
2017-05-09T12:56:40.363Z,1788
2017-05-09T12:57:53.181Z,1784
2017-05-09T12:59:05.496Z,1748
2017-05-09T13:00:17.804Z,1792
2017-05-09T13:01:30.113Z,1796
2017-05-09T13:02:42.908Z,1780
2017-05-09T13:03:55.702Z,1800
2017-05-09T13:05:08.019Z,1800
2017-05-09T13:06:20.338Z,1812
2017-05-09T13:07:33.136Z,1800
2017-05-09T13:08:45.940Z,1808
2017-05-09T13:09:58.731Z,1812
2017-05-09T13:11:11.728Z,1756
2017-05-09T13:12:24.538Z,1636
2017-05-09T13:13:37.339Z,936
2017-05-09T13:14:49.657Z,724
2017-05-09T13:16:02.456Z,1316
2017-05-09T13:17:14.767Z,1236
2017-05-09T13:18:27.563Z,1012
2017-05-09T13:19:40.356Z,968
2017-05-09T13:20:53.149Z,1088
2017-05-09T13:22:05.462Z,840
2017-05-09T13:23:17.781Z,788
2017-05-09T13:24:30.583Z,1100
2017-05-09T13:25:42.897Z,1284
2017-05-09T13:26:55.212Z,1640
2017-05-09T13:28:08.032Z,1252
2017-05-09T13:29:20.351Z,1124
2017-05-09T13:30:33.166Z,1096
2017-05-09T13:31:46.159Z,1308
2017-05-09T13:32:58.949Z,1704
2017-05-09T13:34:11.266Z,1716
2017-05-09T13:35:24.061Z,1748
2017-05-09T13:36:36.853Z,1664
2017-05-09T13:37:49.169Z,1684
2017-05-09T13:39:01.981Z,1592
2017-05-09T13:40:14.305Z,1552
2017-05-09T13:41:27.103Z,1592
2017-05-09T13:42:40.099Z,1660
2017-05-09T13:43:52.428Z,1672
2017-05-09T13:45:05.236Z,1668
2017-05-09T13:46:17.555Z,1700
2017-05-09T13:47:30.359Z,1640
2017-05-09T13:48:43.157Z,1648
2017-05-09T13:49:54.990Z,1668
2017-05-09T13:51:07.808Z,1656
2017-05-09T13:52:20.603Z,1648
2017-05-09T13:53:33.600Z,1636
2017-05-09T13:54:46.437Z,1628
2017-05-09T13:55:58.755Z,1616
2017-05-09T13:57:10.587Z,1624
2017-05-09T13:58:23.389Z,1616
2017-05-09T13:59:36.193Z,1616
2017-05-09T14:00:49.006Z,1612
2017-05-09T14:02:01.808Z,1612
2017-05-09T14:03:14.603Z,1596
2017-05-09T14:04:27.404Z,1608
2017-05-09T14:05:40.203Z,1612
2017-05-09T14:06:52.998Z,1616
2017-05-09T14:08:05.795Z,1616
2017-05-09T14:09:18.592Z,1640
2017-05-09T14:10:31.113Z,1644
2017-05-09T14:11:43.909Z,1632
2017-05-09T14:12:56.697Z,1636
2017-05-09T14:14:09.495Z,1644
2017-05-09T14:15:21.810Z,1688
2017-05-09T14:16:34.610Z,1648
2017-05-09T14:17:46.975Z,1672
2017-05-09T14:18:59.288Z,1652
2017-05-09T14:20:11.123Z,1668
2017-05-09T14:21:23.433Z,1652
2017-05-09T14:22:36.234Z,1620
2017-05-09T14:23:49.084Z,1600
2017-05-09T14:25:01.891Z,1632
2017-05-09T14:26:14.221Z,1604
2017-05-09T14:27:27.026Z,1616
2017-05-09T14:28:39.331Z,1600
2017-05-09T14:29:51.643Z,1612
2017-05-09T14:31:04.442Z,1612
2017-05-09T14:32:16.761Z,1604
2017-05-09T14:33:29.552Z,1628
2017-05-09T14:34:42.344Z,1616
2017-05-09T14:35:55.144Z,1648
2017-05-09T14:37:07.991Z,1652
2017-05-09T14:38:19.867Z,1612
2017-05-09T14:39:32.653Z,1576
2017-05-09T14:40:45.446Z,1536
2017-05-09T14:41:58.245Z,1532
2017-05-09T14:43:11.137Z,1512
2017-05-09T14:44:23.442Z,1480
2017-05-09T14:45:36.242Z,1456
2017-05-09T14:46:49.056Z,1432
2017-05-09T14:48:01.878Z,1424
2017-05-09T14:49:14.674Z,1396
2017-05-09T14:50:27.468Z,1344
2017-05-09T14:51:40.271Z,1344
2017-05-09T14:52:53.066Z,1304
2017-05-09T14:54:05.909Z,1280
2017-05-09T14:55:18.696Z,1260
2017-05-09T14:56:31.008Z,1244
2017-05-09T14:57:43.858Z,1224
2017-05-09T14:58:56.216Z,1220
2017-05-09T15:00:08.522Z,1188
2017-05-09T15:01:20.835Z,1212
2017-05-09T15:02:33.159Z,1200
2017-05-09T15:03:45.474Z,1180
2017-05-09T15:04:57.779Z,1100
2017-05-09T15:06:10.576Z,1148
2017-05-09T15:07:23.373Z,1112
2017-05-09T15:08:36.165Z,1112
2017-05-09T15:09:49.202Z,1060
2017-05-09T15:11:01.993Z,1040
2017-05-09T15:12:14.314Z,1032
2017-05-09T15:13:27.116Z,1012
2017-05-09T15:14:39.908Z,1004
2017-05-09T15:15:51.741Z,992
2017-05-09T15:17:04.538Z,980
2017-05-09T15:18:17.339Z,980
2017-05-09T15:19:30.130Z,956
2017-05-09T15:20:43.220Z,984
2017-05-09T15:21:56.025Z,948
2017-05-09T15:23:08.823Z,948
2017-05-09T15:24:21.610Z,920
2017-05-09T15:25:33.925Z,860
2017-05-09T15:26:46.712Z,872
2017-05-09T15:27:59.031Z,864
2017-05-09T15:29:11.835Z,840
2017-05-09T15:30:24.143Z,820
2017-05-09T15:31:37.140Z,804
2017-05-09T15:32:49.938Z,804
2017-05-09T15:34:02.735Z,800
2017-05-09T15:35:15.042Z,772
2017-05-09T15:36:27.834Z,760
2017-05-09T15:37:40.937Z,736
2017-05-09T15:38:53.734Z,720
2017-05-09T15:40:06.038Z,720
2017-05-09T15:41:18.357Z,692
2017-05-09T15:42:31.146Z,672
2017-05-09T15:43:43.948Z,660
2017-05-09T15:44:56.747Z,640
2017-05-09T15:46:09.059Z,624
2017-05-09T15:47:21.855Z,612
2017-05-09T15:48:34.657Z,588
2017-05-09T15:49:46.965Z,572
2017-05-09T15:50:59.763Z,568
2017-05-09T15:52:12.075Z,548
2017-05-09T15:53:23.897Z,536
2017-05-09T15:54:36.689Z,512
2017-05-09T15:55:49.007Z,500
2017-05-09T15:57:01.806Z,500
2017-05-09T15:58:14.604Z,492
2017-05-09T15:59:27.401Z,484
2017-05-09T16:00:39.725Z,480
2017-05-09T16:01:52.055Z,476
2017-05-09T16:03:04.371Z,476
2017-05-09T16:04:16.202Z,468
2017-05-09T16:05:28.997Z,472
2017-05-09T16:06:41.317Z,500
2017-05-09T16:07:54.115Z,496
2017-05-09T16:09:06.910Z,504
2017-05-09T16:10:19.225Z,500
2017-05-09T16:11:32.036Z,480
2017-05-09T16:12:44.841Z,496
2017-05-09T16:13:57.636Z,488
2017-05-09T16:15:10.636Z,488
2017-05-09T16:16:22.477Z,476
2017-05-09T16:17:34.793Z,476
2017-05-09T16:18:47.583Z,476
2017-05-09T16:20:00.378Z,480
2017-05-09T16:21:13.177Z,476
2017-05-09T16:22:25.979Z,476
2017-05-09T16:23:38.777Z,480
2017-05-09T16:24:51.574Z,484
2017-05-09T16:26:04.675Z,476
2017-05-09T16:27:17.472Z,456
2017-05-09T16:28:30.269Z,452
2017-05-09T16:29:43.063Z,444
2017-05-09T16:30:55.384Z,492
2017-05-09T16:32:08.386Z,544
2017-05-09T16:33:20.215Z,540
2017-05-09T16:34:33.012Z,532
2017-05-09T16:35:45.321Z,516
2017-05-09T16:36:58.119Z,484
2017-05-09T16:38:10.430Z,464
2017-05-09T16:39:23.226Z,468
2017-05-09T16:40:36.027Z,472
2017-05-09T16:41:48.825Z,472
2017-05-09T16:43:01.827Z,460
2017-05-09T16:44:14.625Z,440
2017-05-09T16:45:26.449Z,428
2017-05-09T16:46:39.238Z,428
2017-05-09T16:47:52.039Z,420
2017-05-09T16:49:04.840Z,428
2017-05-09T16:50:16.669Z,444
2017-05-09T16:51:29.457Z,464
2017-05-09T16:52:42.254Z,456
2017-05-09T16:53:54.571Z,432
2017-05-09T16:55:07.357Z,400
2017-05-09T16:56:20.153Z,368
2017-05-09T16:57:32.957Z,344
2017-05-09T16:58:45.755Z,340
2017-05-09T16:59:58.555Z,332